sensor_id;sensor_type;location;lat;lon;timestamp;temperature;humidity
34099;DHT22;20374;49.474;10.944;2023-02-07T00:00:15;-2.50;99.90
34099;DHT22;20374;49.474;10.944;2023-02-07T00:02:46;-2.50;99.90
34099;DHT22;20374;49.474;10.944;2023-02-07T00:05:13;-2.60;99.90
34099;DHT22;20374;49.474;10.944;2023-02-07T00:07:39;-2.60;99.90
34099;DHT22;20374;49.474;10.944;2023-02-07T00:10:06;-2.60;99.90
34099;DHT22;20374;49.474;10.944;2023-02-07T00:12:32;-2.40;99.90
34099;DHT22;20374;49.474;10.944;2023-02-07T00:14:59;-2.60;99.90
34099;DHT22;20374;49.474;10.944;2023-02-07T00:17:27;-2.70;99.90
34099;DHT22;20374;49.474;10.944;2023-02-07T00:19:53;-2.70;99.90
34099;DHT22;20374;49.474;10.944;2023-02-07T00:22:19;-2.70;99.90
34099;DHT22;20374;49.474;10.944;2023-02-07T00:24:45;-2.70;99.90
34099;DHT22;20374;49.474;10.944;2023-02-07T00:27:11;-2.70;99.90
34099;DHT22;20374;49.474;10.944;2023-02-07T00:29:37;-2.80;99.90
34099;DHT22;20374;49.474;10.944;2023-02-07T00:32:03;-2.80;99.90
34099;DHT22;20374;49.474;10.944;2023-02-07T00:34:29;-2.70;99.90
34099;DHT22;20374;49.474;10.944;2023-02-07T00:36:56;-2.70;99.90
34099;DHT22;20374;49.474;10.944;2023-02-07T00:39:24;-2.70;99.90
34099;DHT22;20374;49.474;10.944;2023-02-07T00:41:51;-2.80;99.90
34099;DHT22;20374;49.474;10.944;2023-02-07T00:44:19;-2.70;99.90
34099;DHT22;20374;49.474;10.944;2023-02-07T00:46:45;-2.80;99.90
34099;DHT22;20374;49.474;10.944;2023-02-07T00:49:12;-2.90;99.90
34099;DHT22;20374;49.474;10.944;2023-02-07T00:51:38;-2.90;99.90
34099;DHT22;20374;49.474;10.944;2023-02-07T00:54:04;-2.90;99.90
34099;DHT22;20374;49.474;10.944;2023-02-07T00:56:30;-2.90;99.90
34099;DHT22;20374;49.474;10.944;2023-02-07T00:58:57;-2.90;99.90
34099;DHT22;20374;49.474;10.944;2023-02-07T01:01:24;-2.90;99.90
34099;DHT22;20374;49.474;10.944;2023-02-07T01:03:53;-2.80;99.90
34099;DHT22;20374;49.474;10.944;2023-02-07T01:06:20;-2.80;99.90
34099;DHT22;20374;49.474;10.944;2023-02-07T01:08:47;-2.90;99.90
34099;DHT22;20374;49.474;10.944;2023-02-07T01:11:15;-2.90;99.90
34099;DHT22;20374;49.474;10.944;2023-02-07T01:13:42;-3.10;99.90
34099;DHT22;20374;49.474;10.944;2023-02-07T01:16:21;-3.00;99.90
34099;DHT22;20374;49.474;10.944;2023-02-07T01:18:53;-3.10;99.90
34099;DHT22;20374;49.474;10.944;2023-02-07T01:21:23;-3.20;99.90
34099;DHT22;20374;49.474;10.944;2023-02-07T01:23:50;-3.20;99.90
34099;DHT22;20374;49.474;10.944;2023-02-07T01:26:17;-3.20;99.90
34099;DHT22;20374;49.474;10.944;2023-02-07T01:28:43;-3.30;99.90
34099;DHT22;20374;49.474;10.944;2023-02-07T01:31:11;-3.30;99.90
34099;DHT22;20374;49.474;10.944;2023-02-07T01:33:38;-3.40;99.90
34099;DHT22;20374;49.474;10.944;2023-02-07T01:36:09;-3.40;99.90
34099;DHT22;20374;49.474;10.944;2023-02-07T01:38:35;-3.40;99.90
34099;DHT22;20374;49.474;10.944;2023-02-07T01:41:05;-3.40;99.90
34099;DHT22;20374;49.474;10.944;2023-02-07T01:43:31;-3.40;99.90
34099;DHT22;20374;49.474;10.944;2023-02-07T01:45:58;-3.40;99.90
34099;DHT22;20374;49.474;10.944;2023-02-07T01:48:30;-3.40;99.90
34099;DHT22;20374;49.474;10.944;2023-02-07T01:51:00;-3.40;99.90
34099;DHT22;20374;49.474;10.944;2023-02-07T01:53:30;-3.40;99.90
34099;DHT22;20374;49.474;10.944;2023-02-07T01:56:00;-3.40;99.90
34099;DHT22;20374;49.474;10.944;2023-02-07T01:58:30;-3.40;99.90
34099;DHT22;20374;49.474;10.944;2023-02-07T02:00:58;-3.50;99.90
34099;DHT22;20374;49.474;10.944;2023-02-07T02:03:28;-3.50;99.90
34099;DHT22;20374;49.474;10.944;2023-02-07T02:05:54;-3.50;99.90
34099;DHT22;20374;49.474;10.944;2023-02-07T02:08:22;-3.50;99.90
34099;DHT22;20374;49.474;10.944;2023-02-07T02:13:44;-3.50;99.90
34099;DHT22;20374;49.474;10.944;2023-02-07T02:26:14;-3.70;99.90
34099;DHT22;20374;49.474;10.944;2023-02-07T02:28:37;-3.70;99.90
34099;DHT22;20374;49.474;10.944;2023-02-07T02:33:47;-3.80;99.90
34099;DHT22;20374;49.474;10.944;2023-02-07T02:36:27;-3.90;99.90
34099;DHT22;20374;49.474;10.944;2023-02-07T02:42:10;-3.90;99.90
34099;DHT22;20374;49.474;10.944;2023-02-07T02:47:09;-4.10;99.90
34099;DHT22;20374;49.474;10.944;2023-02-07T02:49:36;-4.10;99.90
34099;DHT22;20374;49.474;10.944;2023-02-07T02:52:03;-4.10;99.90
34099;DHT22;20374;49.474;10.944;2023-02-07T02:54:32;-4.20;99.90
34099;DHT22;20374;49.474;10.944;2023-02-07T03:03:28;-4.30;99.90
34099;DHT22;20374;49.474;10.944;2023-02-07T03:08:56;-4.40;99.90
34099;DHT22;20374;49.474;10.944;2023-02-07T03:11:23;-4.40;99.90
34099;DHT22;20374;49.474;10.944;2023-02-07T03:19:14;-4.70;99.90
34099;DHT22;20374;49.474;10.944;2023-02-07T03:24:24;-4.90;99.90
34099;DHT22;20374;49.474;10.944;2023-02-07T03:26:55;-4.90;99.90
34099;DHT22;20374;49.474;10.944;2023-02-07T03:29:23;-5.00;99.90
34099;DHT22;20374;49.474;10.944;2023-02-07T03:31:51;-5.00;99.90
34099;DHT22;20374;49.474;10.944;2023-02-07T03:34:29;-5.00;99.90
34099;DHT22;20374;49.474;10.944;2023-02-07T03:37:22;-5.10;99.90
34099;DHT22;20374;49.474;10.944;2023-02-07T03:39:49;-5.20;99.90
34099;DHT22;20374;49.474;10.944;2023-02-07T03:42:39;-5.20;99.90
34099;DHT22;20374;49.474;10.944;2023-02-07T03:45:09;-5.20;99.90
34099;DHT22;20374;49.474;10.944;2023-02-07T03:47:36;-5.20;99.90
34099;DHT22;20374;49.474;10.944;2023-02-07T03:50:02;-5.30;99.90
34099;DHT22;20374;49.474;10.944;2023-02-07T03:52:28;-5.30;99.90
34099;DHT22;20374;49.474;10.944;2023-02-07T03:54:54;-5.30;99.90
34099;DHT22;20374;49.474;10.944;2023-02-07T03:57:20;-5.30;99.90
34099;DHT22;20374;49.474;10.944;2023-02-07T03:59:46;-5.30;99.90
34099;DHT22;20374;49.474;10.944;2023-02-07T04:02:12;-5.30;99.90
34099;DHT22;20374;49.474;10.944;2023-02-07T04:04:38;-5.40;99.90
34099;DHT22;20374;49.474;10.944;2023-02-07T04:07:04;-5.40;99.90
34099;DHT22;20374;49.474;10.944;2023-02-07T04:09:30;-5.40;99.90
34099;DHT22;20374;49.474;10.944;2023-02-07T04:11:56;-5.50;99.90
34099;DHT22;20374;49.474;10.944;2023-02-07T04:14:22;-5.50;99.90
34099;DHT22;20374;49.474;10.944;2023-02-07T04:16:48;-5.60;99.90
34099;DHT22;20374;49.474;10.944;2023-02-07T04:19:15;-5.60;99.90
34099;DHT22;20374;49.474;10.944;2023-02-07T04:21:41;-5.60;99.90
34099;DHT22;20374;49.474;10.944;2023-02-07T04:24:07;-5.60;99.90
34099;DHT22;20374;49.474;10.944;2023-02-07T04:26:33;-5.60;99.90
34099;DHT22;20374;49.474;10.944;2023-02-07T04:28:59;-5.60;99.90
34099;DHT22;20374;49.474;10.944;2023-02-07T04:31:25;-5.60;99.90
34099;DHT22;20374;49.474;10.944;2023-02-07T04:33:51;-5.60;99.90
34099;DHT22;20374;49.474;10.944;2023-02-07T04:36:17;-5.60;99.90
34099;DHT22;20374;49.474;10.944;2023-02-07T04:38:43;-5.50;99.90
34099;DHT22;20374;49.474;10.944;2023-02-07T04:41:09;-5.50;99.90
34099;DHT22;20374;49.474;10.944;2023-02-07T04:43:36;-5.60;99.90
34099;DHT22;20374;49.474;10.944;2023-02-07T04:46:03;-5.70;99.90
34099;DHT22;20374;49.474;10.944;2023-02-07T04:48:30;-5.80;99.90
34099;DHT22;20374;49.474;10.944;2023-02-07T04:50:56;-5.90;99.90
34099;DHT22;20374;49.474;10.944;2023-02-07T04:53:22;-5.90;99.90
34099;DHT22;20374;49.474;10.944;2023-02-07T04:55:49;-6.00;99.90
34099;DHT22;20374;49.474;10.944;2023-02-07T04:58:15;-5.90;99.90
34099;DHT22;20374;49.474;10.944;2023-02-07T05:00:41;-5.90;99.90
34099;DHT22;20374;49.474;10.944;2023-02-07T05:03:07;-5.90;99.90
34099;DHT22;20374;49.474;10.944;2023-02-07T05:05:40;-5.90;99.90
34099;DHT22;20374;49.474;10.944;2023-02-07T05:08:06;-6.00;99.90
34099;DHT22;20374;49.474;10.944;2023-02-07T05:10:36;-6.00;99.90
34099;DHT22;20374;49.474;10.944;2023-02-07T05:13:02;-6.10;99.90
34099;DHT22;20374;49.474;10.944;2023-02-07T05:15:28;-6.00;99.90
34099;DHT22;20374;49.474;10.944;2023-02-07T05:17:53;-6.00;99.90
34099;DHT22;20374;49.474;10.944;2023-02-07T05:20:22;-6.00;99.90
34099;DHT22;20374;49.474;10.944;2023-02-07T05:22:48;-6.00;99.90
34099;DHT22;20374;49.474;10.944;2023-02-07T05:25:14;-6.10;99.90
34099;DHT22;20374;49.474;10.944;2023-02-07T05:27:40;-6.10;99.90
34099;DHT22;20374;49.474;10.944;2023-02-07T05:30:07;-6.20;99.90
34099;DHT22;20374;49.474;10.944;2023-02-07T05:32:33;-6.20;99.90
34099;DHT22;20374;49.474;10.944;2023-02-07T05:35:17;-6.20;99.90
34099;DHT22;20374;49.474;10.944;2023-02-07T05:37:43;-6.20;99.90
34099;DHT22;20374;49.474;10.944;2023-02-07T05:40:10;-6.20;99.90
34099;DHT22;20374;49.474;10.944;2023-02-07T05:42:38;-6.10;99.90
34099;DHT22;20374;49.474;10.944;2023-02-07T05:45:05;-6.10;99.90
34099;DHT22;20374;49.474;10.944;2023-02-07T05:47:31;-6.10;99.90
34099;DHT22;20374;49.474;10.944;2023-02-07T05:49:57;-6.10;99.90
34099;DHT22;20374;49.474;10.944;2023-02-07T05:52:23;-6.10;99.90
34099;DHT22;20374;49.474;10.944;2023-02-07T05:54:49;-6.20;99.90
34099;DHT22;20374;49.474;10.944;2023-02-07T05:57:15;-6.20;99.90
34099;DHT22;20374;49.474;10.944;2023-02-07T05:59:41;-6.30;99.90
34099;DHT22;20374;49.474;10.944;2023-02-07T06:02:07;-6.30;99.90
34099;DHT22;20374;49.474;10.944;2023-02-07T06:04:33;-6.40;99.90
34099;DHT22;20374;49.474;10.944;2023-02-07T06:06:59;-6.50;99.90
34099;DHT22;20374;49.474;10.944;2023-02-07T06:09:24;-6.50;99.90
34099;DHT22;20374;49.474;10.944;2023-02-07T06:11:50;-6.40;99.90
34099;DHT22;20374;49.474;10.944;2023-02-07T06:14:16;-6.30;99.90
34099;DHT22;20374;49.474;10.944;2023-02-07T06:16:42;-6.30;99.90
34099;DHT22;20374;49.474;10.944;2023-02-07T06:19:09;-6.40;99.90
34099;DHT22;20374;49.474;10.944;2023-02-07T06:21:36;-6.30;99.90
34099;DHT22;20374;49.474;10.944;2023-02-07T06:24:01;-6.40;99.90
34099;DHT22;20374;49.474;10.944;2023-02-07T06:26:27;-6.30;99.90
34099;DHT22;20374;49.474;10.944;2023-02-07T06:28:54;-6.30;99.90
34099;DHT22;20374;49.474;10.944;2023-02-07T06:31:19;-6.30;99.90
34099;DHT22;20374;49.474;10.944;2023-02-07T06:33:45;-6.30;99.90
34099;DHT22;20374;49.474;10.944;2023-02-07T06:36:11;-6.20;99.90
34099;DHT22;20374;49.474;10.944;2023-02-07T06:38:37;-6.20;99.90
34099;DHT22;20374;49.474;10.944;2023-02-07T06:41:03;-6.20;99.90
34099;DHT22;20374;49.474;10.944;2023-02-07T06:43:29;-6.10;99.90
34099;DHT22;20374;49.474;10.944;2023-02-07T06:45:55;-6.00;99.90
34099;DHT22;20374;49.474;10.944;2023-02-07T06:48:21;-6.00;99.90
34099;DHT22;20374;49.474;10.944;2023-02-07T06:50:50;-6.00;99.90
34099;DHT22;20374;49.474;10.944;2023-02-07T06:53:17;-5.90;99.90
34099;DHT22;20374;49.474;10.944;2023-02-07T06:55:42;-5.90;99.90
34099;DHT22;20374;49.474;10.944;2023-02-07T06:58:08;-5.90;99.90
34099;DHT22;20374;49.474;10.944;2023-02-07T07:00:35;-5.90;99.90
34099;DHT22;20374;49.474;10.944;2023-02-07T07:03:01;-5.90;99.90
34099;DHT22;20374;49.474;10.944;2023-02-07T07:05:28;-6.10;99.90
34099;DHT22;20374;49.474;10.944;2023-02-07T07:07:54;-5.90;99.90
34099;DHT22;20374;49.474;10.944;2023-02-07T07:10:21;-5.90;99.90
34099;DHT22;20374;49.474;10.944;2023-02-07T07:12:47;-5.90;99.90
34099;DHT22;20374;49.474;10.944;2023-02-07T07:15:13;-5.90;99.90
34099;DHT22;20374;49.474;10.944;2023-02-07T07:17:40;-5.90;99.90
34099;DHT22;20374;49.474;10.944;2023-02-07T07:20:07;-5.90;99.90
34099;DHT22;20374;49.474;10.944;2023-02-07T07:22:33;-5.90;99.90
34099;DHT22;20374;49.474;10.944;2023-02-07T07:25:00;-5.90;99.90
34099;DHT22;20374;49.474;10.944;2023-02-07T07:27:26;-5.80;99.90
34099;DHT22;20374;49.474;10.944;2023-02-07T07:29:52;-5.70;99.90
34099;DHT22;20374;49.474;10.944;2023-02-07T07:32:18;-5.60;99.90
34099;DHT22;20374;49.474;10.944;2023-02-07T07:34:44;-5.50;99.90
34099;DHT22;20374;49.474;10.944;2023-02-07T07:37:13;-5.40;99.90
34099;DHT22;20374;49.474;10.944;2023-02-07T07:39:38;-5.40;99.90
34099;DHT22;20374;49.474;10.944;2023-02-07T07:42:04;-5.30;99.90
34099;DHT22;20374;49.474;10.944;2023-02-07T07:44:48;-5.30;99.90
34099;DHT22;20374;49.474;10.944;2023-02-07T07:47:14;-4.90;99.90
34099;DHT22;20374;49.474;10.944;2023-02-07T07:49:40;-4.00;99.90
34099;DHT22;20374;49.474;10.944;2023-02-07T07:52:06;-2.60;99.90
34099;DHT22;20374;49.474;10.944;2023-02-07T07:54:32;-1.10;99.90
34099;DHT22;20374;49.474;10.944;2023-02-07T07:56:58;0.50;99.90
34099;DHT22;20374;49.474;10.944;2023-02-07T07:59:24;1.80;99.90
34099;DHT22;20374;49.474;10.944;2023-02-07T08:01:50;2.90;99.90
34099;DHT22;20374;49.474;10.944;2023-02-07T08:04:16;3.50;99.90
34099;DHT22;20374;49.474;10.944;2023-02-07T08:06:42;4.20;99.90
34099;DHT22;20374;49.474;10.944;2023-02-07T08:09:08;4.60;98.50
34099;DHT22;20374;49.474;10.944;2023-02-07T08:11:34;5.00;97.40
34099;DHT22;20374;49.474;10.944;2023-02-07T08:14:00;5.10;93.00
34099;DHT22;20374;49.474;10.944;2023-02-07T08:16:26;4.80;91.60
34099;DHT22;20374;49.474;10.944;2023-02-07T08:18:52;3.80;91.60
34099;DHT22;20374;49.474;10.944;2023-02-07T08:21:18;2.50;93.70
34099;DHT22;20374;49.474;10.944;2023-02-07T08:23:44;1.20;96.20
34099;DHT22;20374;49.474;10.944;2023-02-07T08:26:10;0.40;98.60
34099;DHT22;20374;49.474;10.944;2023-02-07T08:28:36;-0.30;99.90
34099;DHT22;20374;49.474;10.944;2023-02-07T08:31:03;-0.70;99.90
34099;DHT22;20374;49.474;10.944;2023-02-07T08:33:30;-1.00;99.90
34099;DHT22;20374;49.474;10.944;2023-02-07T08:35:56;-1.20;99.90
34099;DHT22;20374;49.474;10.944;2023-02-07T08:38:23;-1.50;99.90
34099;DHT22;20374;49.474;10.944;2023-02-07T08:40:49;-1.60;99.90
34099;DHT22;20374;49.474;10.944;2023-02-07T08:43:15;-1.60;99.90
34099;DHT22;20374;49.474;10.944;2023-02-07T08:45:45;-1.70;99.90
34099;DHT22;20374;49.474;10.944;2023-02-07T08:48:12;-1.80;99.90
34099;DHT22;20374;49.474;10.944;2023-02-07T08:50:38;-1.40;99.90
34099;DHT22;20374;49.474;10.944;2023-02-07T08:53:04;-0.90;99.90
34099;DHT22;20374;49.474;10.944;2023-02-07T08:55:30;-0.90;99.90
34099;DHT22;20374;49.474;10.944;2023-02-07T08:57:56;-1.00;99.90
34099;DHT22;20374;49.474;10.944;2023-02-07T09:00:22;-1.20;99.90
34099;DHT22;20374;49.474;10.944;2023-02-07T09:02:48;-1.40;99.90
34099;DHT22;20374;49.474;10.944;2023-02-07T09:05:14;-1.60;99.90
34099;DHT22;20374;49.474;10.944;2023-02-07T09:07:40;-1.70;99.90
34099;DHT22;20374;49.474;10.944;2023-02-07T09:10:07;-1.80;99.90
34099;DHT22;20374;49.474;10.944;2023-02-07T09:12:35;-1.90;99.90
34099;DHT22;20374;49.474;10.944;2023-02-07T09:15:03;-2.00;99.90
34099;DHT22;20374;49.474;10.944;2023-02-07T09:17:30;-1.90;99.90
34099;DHT22;20374;49.474;10.944;2023-02-07T09:19:56;-2.00;99.90
34099;DHT22;20374;49.474;10.944;2023-02-07T09:22:22;-2.00;99.90
34099;DHT22;20374;49.474;10.944;2023-02-07T09:24:48;-2.00;99.90
34099;DHT22;20374;49.474;10.944;2023-02-07T09:27:14;-2.00;99.90
34099;DHT22;20374;49.474;10.944;2023-02-07T09:29:40;-1.90;99.90
34099;DHT22;20374;49.474;10.944;2023-02-07T09:32:05;-1.80;99.90
34099;DHT22;20374;49.474;10.944;2023-02-07T09:34:34;-1.60;99.90
34099;DHT22;20374;49.474;10.944;2023-02-07T09:37:00;-1.10;99.90
34099;DHT22;20374;49.474;10.944;2023-02-07T09:39:26;-0.60;99.90
34099;DHT22;20374;49.474;10.944;2023-02-07T09:47:21;0.60;99.90
34099;DHT22;20374;49.474;10.944;2023-02-07T09:52:21;-0.10;99.90
34099;DHT22;20374;49.474;10.944;2023-02-07T09:54:54;-0.40;99.90
34099;DHT22;20374;49.474;10.944;2023-02-07T09:57:25;-0.60;99.90
34099;DHT22;20374;49.474;10.944;2023-02-07T10:00:06;-0.70;99.90
34099;DHT22;20374;49.474;10.944;2023-02-07T10:02:50;-0.80;99.90
34099;DHT22;20374;49.474;10.944;2023-02-07T10:05:19;-0.90;99.90
34099;DHT22;20374;49.474;10.944;2023-02-07T10:07:47;-0.90;99.90
34099;DHT22;20374;49.474;10.944;2023-02-07T10:10:18;-1.00;99.90
34099;DHT22;20374;49.474;10.944;2023-02-07T10:18:33;-0.90;99.90
34099;DHT22;20374;49.474;10.944;2023-02-07T10:21:09;-0.80;99.90
34099;DHT22;20374;49.474;10.944;2023-02-07T10:23:52;-0.80;99.90
34099;DHT22;20374;49.474;10.944;2023-02-07T10:26:41;-0.60;99.90
34099;DHT22;20374;49.474;10.944;2023-02-07T10:31:55;-0.20;99.20
34099;DHT22;20374;49.474;10.944;2023-02-07T10:34:29;-0.10;98.90
34099;DHT22;20374;49.474;10.944;2023-02-07T10:36:57;0.00;97.80
34099;DHT22;20374;49.474;10.944;2023-02-07T10:39:39;0.20;96.30
34099;DHT22;20374;49.474;10.944;2023-02-07T10:42:16;0.20;96.40
34099;DHT22;20374;49.474;10.944;2023-02-07T10:44:42;0.30;96.40
34099;DHT22;20374;49.474;10.944;2023-02-07T10:47:15;0.20;96.70
34099;DHT22;20374;49.474;10.944;2023-02-07T10:49:45;0.60;96.20
34099;DHT22;20374;49.474;10.944;2023-02-07T10:54:56;1.20;96.10
34099;DHT22;20374;49.474;10.944;2023-02-07T10:57:23;1.10;94.00
34099;DHT22;20374;49.474;10.944;2023-02-07T11:00:43;0.90;94.50
34099;DHT22;20374;49.474;10.944;2023-02-07T11:02:48;0.80;94.00
34099;DHT22;20374;49.474;10.944;2023-02-07T11:10:26;1.00;93.90
34099;DHT22;20374;49.474;10.944;2023-02-07T11:12:55;1.20;93.40
34099;DHT22;20374;49.474;10.944;2023-02-07T11:15:23;1.30;93.50
34099;DHT22;20374;49.474;10.944;2023-02-07T11:17:54;1.30;93.50
34099;DHT22;20374;49.474;10.944;2023-02-07T11:20:37;1.30;93.70
34099;DHT22;20374;49.474;10.944;2023-02-07T11:23:14;1.30;93.00
34099;DHT22;20374;49.474;10.944;2023-02-07T11:25:53;1.30;95.50
34099;DHT22;20374;49.474;10.944;2023-02-07T11:28:25;1.50;93.10
34099;DHT22;20374;49.474;10.944;2023-02-07T11:31:04;1.60;92.70
34099;DHT22;20374;49.474;10.944;2023-02-07T11:33:34;1.80;93.70
34099;DHT22;20374;49.474;10.944;2023-02-07T11:36:20;1.90;91.40
34099;DHT22;20374;49.474;10.944;2023-02-07T11:38:55;2.00;92.00
34099;DHT22;20374;49.474;10.944;2023-02-07T11:41:28;2.40;91.00
34099;DHT22;20374;49.474;10.944;2023-02-07T11:46:30;3.00;88.50
34099;DHT22;20374;49.474;10.944;2023-02-07T11:48:58;3.30;89.20
34099;DHT22;20374;49.474;10.944;2023-02-07T11:51:24;3.60;90.20
34099;DHT22;20374;49.474;10.944;2023-02-07T11:54:00;4.20;90.10
34099;DHT22;20374;49.474;10.944;2023-02-07T11:56:40;4.90;87.90
34099;DHT22;20374;49.474;10.944;2023-02-07T11:59:15;6.00;82.60
34099;DHT22;20374;49.474;10.944;2023-02-07T12:01:48;7.40;80.30
34099;DHT22;20374;49.474;10.944;2023-02-07T12:04:17;9.10;70.40
34099;DHT22;20374;49.474;10.944;2023-02-07T12:06:58;10.30;72.40
34099;DHT22;20374;49.474;10.944;2023-02-07T12:09:42;11.10;66.10
34099;DHT22;20374;49.474;10.944;2023-02-07T12:12:25;12.20;60.60
34099;DHT22;20374;49.474;10.944;2023-02-07T12:14:59;13.10;60.20
34099;DHT22;20374;49.474;10.944;2023-02-07T12:20:09;13.40;52.20
34099;DHT22;20374;49.474;10.944;2023-02-07T12:22:44;12.90;53.60
34099;DHT22;20374;49.474;10.944;2023-02-07T12:25:15;12.00;51.70
34099;DHT22;20374;49.474;10.944;2023-02-07T12:27:44;12.00;54.90
34099;DHT22;20374;49.474;10.944;2023-02-07T12:30:16;12.60;52.80
34099;DHT22;20374;49.474;10.944;2023-02-07T12:35:36;14.10;51.90
34099;DHT22;20374;49.474;10.944;2023-02-07T12:46:07;14.70;47.30
34099;DHT22;20374;49.474;10.944;2023-02-07T12:51:44;14.20;44.90
34099;DHT22;20374;49.474;10.944;2023-02-07T12:57:07;14.60;46.40
34099;DHT22;20374;49.474;10.944;2023-02-07T13:05:21;14.70;43.60
34099;DHT22;20374;49.474;10.944;2023-02-07T13:24:48;14.90;47.40
34099;DHT22;20374;49.474;10.944;2023-02-07T13:27:18;14.40;47.10
34099;DHT22;20374;49.474;10.944;2023-02-07T13:29:48;13.90;43.30
34099;DHT22;20374;49.474;10.944;2023-02-07T13:32:23;13.60;46.50
34099;DHT22;20374;49.474;10.944;2023-02-07T13:35:05;13.70;49.10
34099;DHT22;20374;49.474;10.944;2023-02-07T13:43:20;14.60;42.90
34099;DHT22;20374;49.474;10.944;2023-02-07T13:45:53;14.50;43.80
34099;DHT22;20374;49.474;10.944;2023-02-07T13:51:26;14.10;45.40
34099;DHT22;20374;49.474;10.944;2023-02-07T13:56:56;14.10;41.80
34099;DHT22;20374;49.474;10.944;2023-02-07T13:59:42;14.20;42.60
34099;DHT22;20374;49.474;10.944;2023-02-07T14:02:21;14.50;41.50
34099;DHT22;20374;49.474;10.944;2023-02-07T14:04:50;13.00;40.40
34099;DHT22;20374;49.474;10.944;2023-02-07T14:07:35;12.50;41.40
34099;DHT22;20374;49.474;10.944;2023-02-07T14:10:03;12.70;40.90
34099;DHT22;20374;49.474;10.944;2023-02-07T14:12:38;12.20;41.70
34099;DHT22;20374;49.474;10.944;2023-02-07T14:23:58;12.30;43.40
34099;DHT22;20374;49.474;10.944;2023-02-07T14:31:55;12.30;41.40
34099;DHT22;20374;49.474;10.944;2023-02-07T14:34:27;12.60;41.20
34099;DHT22;20374;49.474;10.944;2023-02-07T14:36:53;12.30;41.70
34099;DHT22;20374;49.474;10.944;2023-02-07T14:39:32;12.00;41.80
34099;DHT22;20374;49.474;10.944;2023-02-07T14:42:24;11.60;42.50
34099;DHT22;20374;49.474;10.944;2023-02-07T14:44:55;11.20;41.70
34099;DHT22;20374;49.474;10.944;2023-02-07T14:47:25;11.20;42.60
34099;DHT22;20374;49.474;10.944;2023-02-07T14:49:55;11.20;42.90
34099;DHT22;20374;49.474;10.944;2023-02-07T14:52:28;10.90;42.30
34099;DHT22;20374;49.474;10.944;2023-02-07T14:55:13;10.70;43.90
34099;DHT22;20374;49.474;10.944;2023-02-07T14:57:59;10.60;42.60
34099;DHT22;20374;49.474;10.944;2023-02-07T15:00:37;10.20;44.60
34099;DHT22;20374;49.474;10.944;2023-02-07T15:03:14;9.70;44.70
34099;DHT22;20374;49.474;10.944;2023-02-07T15:06:00;9.70;44.60
34099;DHT22;20374;49.474;10.944;2023-02-07T15:08:29;9.50;46.40
34099;DHT22;20374;49.474;10.944;2023-02-07T15:11:06;9.40;44.70
34099;DHT22;20374;49.474;10.944;2023-02-07T15:16:15;7.90;45.80
34099;DHT22;20374;49.474;10.944;2023-02-07T15:21:17;6.90;49.20
34099;DHT22;20374;49.474;10.944;2023-02-07T15:23:53;6.50;48.70
34099;DHT22;20374;49.474;10.944;2023-02-07T15:26:21;6.30;49.30
34099;DHT22;20374;49.474;10.944;2023-02-07T15:28:59;6.20;47.80
34099;DHT22;20374;49.474;10.944;2023-02-07T15:31:26;5.50;49.60
34099;DHT22;20374;49.474;10.944;2023-02-07T15:33:55;5.20;49.90
34099;DHT22;20374;49.474;10.944;2023-02-07T15:36:36;4.90;51.70
34099;DHT22;20374;49.474;10.944;2023-02-07T15:39:05;4.50;52.10
34099;DHT22;20374;49.474;10.944;2023-02-07T15:41:32;4.20;53.50
34099;DHT22;20374;49.474;10.944;2023-02-07T15:44:03;3.90;53.60
34099;DHT22;20374;49.474;10.944;2023-02-07T15:46:55;3.70;54.30
34099;DHT22;20374;49.474;10.944;2023-02-07T15:49:56;3.60;54.60
34099;DHT22;20374;49.474;10.944;2023-02-07T15:52:41;3.40;56.60
34099;DHT22;20374;49.474;10.944;2023-02-07T15:55:17;3.50;56.10
34099;DHT22;20374;49.474;10.944;2023-02-07T15:57:45;3.40;56.70
34099;DHT22;20374;49.474;10.944;2023-02-07T16:00:17;3.30;57.10
34099;DHT22;20374;49.474;10.944;2023-02-07T16:02:59;3.20;57.50
34099;DHT22;20374;49.474;10.944;2023-02-07T16:05:35;3.00;57.50
34099;DHT22;20374;49.474;10.944;2023-02-07T16:08:35;2.90;57.30
34099;DHT22;20374;49.474;10.944;2023-02-07T16:18:51;2.70;59.00
34099;DHT22;20374;49.474;10.944;2023-02-07T16:21:23;2.60;58.20
34099;DHT22;20374;49.474;10.944;2023-02-07T16:23:55;2.50;59.30
34099;DHT22;20374;49.474;10.944;2023-02-07T16:26:24;2.50;58.20
34099;DHT22;20374;49.474;10.944;2023-02-07T16:28:52;2.50;60.60
34099;DHT22;20374;49.474;10.944;2023-02-07T16:31:18;2.40;59.80
34099;DHT22;20374;49.474;10.944;2023-02-07T16:33:44;2.30;59.70
34099;DHT22;20374;49.474;10.944;2023-02-07T16:36:17;2.30;63.00
34099;DHT22;20374;49.474;10.944;2023-02-07T16:38:43;2.20;63.50
34099;DHT22;20374;49.474;10.944;2023-02-07T16:41:29;2.10;66.00
34099;DHT22;20374;49.474;10.944;2023-02-07T16:44:01;1.90;66.90
34099;DHT22;20374;49.474;10.944;2023-02-07T16:46:30;1.70;68.50
34099;DHT22;20374;49.474;10.944;2023-02-07T16:48:56;1.50;70.50
34099;DHT22;20374;49.474;10.944;2023-02-07T16:51:22;1.30;72.00
34099;DHT22;20374;49.474;10.944;2023-02-07T16:53:49;1.20;71.50
34099;DHT22;20374;49.474;10.944;2023-02-07T16:56:25;1.10;75.10
34099;DHT22;20374;49.474;10.944;2023-02-07T16:58:52;1.00;75.20
34099;DHT22;20374;49.474;10.944;2023-02-07T17:01:19;0.80;76.70
34099;DHT22;20374;49.474;10.944;2023-02-07T17:03:46;0.60;79.30
34099;DHT22;20374;49.474;10.944;2023-02-07T17:06:21;0.50;82.00
34099;DHT22;20374;49.474;10.944;2023-02-07T17:08:48;0.40;82.40
34099;DHT22;20374;49.474;10.944;2023-02-07T17:11:20;0.20;84.40
34099;DHT22;20374;49.474;10.944;2023-02-07T17:13:57;0.10;85.40
34099;DHT22;20374;49.474;10.944;2023-02-07T17:16:24;0.00;88.10
34099;DHT22;20374;49.474;10.944;2023-02-07T17:18:51;-0.20;87.40
34099;DHT22;20374;49.474;10.944;2023-02-07T17:21:17;-0.20;90.20
34099;DHT22;20374;49.474;10.944;2023-02-07T17:23:46;-0.20;90.50
34099;DHT22;20374;49.474;10.944;2023-02-07T17:26:29;-0.10;91.00
34099;DHT22;20374;49.474;10.944;2023-02-07T17:28:56;-0.20;91.10
34099;DHT22;20374;49.474;10.944;2023-02-07T17:31:23;-0.20;92.50
34099;DHT22;20374;49.474;10.944;2023-02-07T17:33:49;-0.10;93.20
34099;DHT22;20374;49.474;10.944;2023-02-07T17:36:19;-0.10;93.00
34099;DHT22;20374;49.474;10.944;2023-02-07T17:38:45;-0.20;92.80
34099;DHT22;20374;49.474;10.944;2023-02-07T17:41:12;-0.30;93.40
34099;DHT22;20374;49.474;10.944;2023-02-07T17:43:38;-0.50;93.50
34099;DHT22;20374;49.474;10.944;2023-02-07T17:46:17;-0.60;93.70
34099;DHT22;20374;49.474;10.944;2023-02-07T17:48:44;-0.80;94.70
34099;DHT22;20374;49.474;10.944;2023-02-07T17:51:14;-0.70;95.60
34099;DHT22;20374;49.474;10.944;2023-02-07T17:53:40;-0.70;95.60
34099;DHT22;20374;49.474;10.944;2023-02-07T17:56:06;-0.60;96.90
34099;DHT22;20374;49.474;10.944;2023-02-07T18:01:10;-0.70;95.80
34099;DHT22;20374;49.474;10.944;2023-02-07T18:03:36;-0.70;96.00